Time;durP1;ratioP1;P1;durP2;ratioP2;P2;SDS_P1;SDS_P2;PMS_P1;PMS_P2;Temp;Humidity;BMP_temperature;BMP_pressure;BME280_temperature;BME280_humidity;BME280_pressure;Samples;Min_cycle;Max_cycle;Signal;HPM_P1;HPM_P2
2023/08/15 00:00:38;;;;;;;9.80;5.87;;;;;;;;;;5031113;28;20209;-54
2023/08/15 00:03:05;;;;;;;13.00;6.47;;;;;;;;;;5030770;28;20258;-54
2023/08/15 00:05:31;;;;;;;6.80;5.30;;;;;;;;;;5030741;28;20201;-55
2023/08/15 00:07:57;;;;;;;7.33;5.80;;;;;;;;;;5030815;28;20679;-54
2023/08/15 00:10:23;;;;;;;7.23;5.03;;;;;;;;;;5030891;28;20262;-55
2023/08/15 00:12:49;;;;;;;9.57;5.50;;;;;;;;;;5027135;28;20202;-55
2023/08/15 00:15:15;;;;;;;5.27;4.77;;;;;;;;;;5028826;28;20201;-55
2023/08/15 00:17:42;;;;;;;8.83;5.23;;;;;;;;;;5030430;28;20198;-54
2023/08/15 00:20:09;;;;;;;8.60;4.67;;;;;;;;;;5031013;28;20280;-54
2023/08/15 00:22:35;;;;;;;6.27;4.70;;;;;;;;;;5030970;28;20557;-55
2023/08/15 00:25:01;;;;;;;9.27;5.17;;;;;;;;;;5030471;28;20294;-53
2023/08/15 00:27:27;;;;;;;6.07;4.20;;;;;;;;;;5030922;28;20477;-53
2023/08/15 00:29:53;;;;;;;5.93;4.30;;;;;;;;;;5030621;28;20428;-54
2023/08/15 00:32:19;;;;;;;5.73;4.57;;;;;;;;;;5030834;28;20701;-54
2023/08/15 00:34:46;;;;;;;5.20;4.13;;;;;;;;;;5030185;28;20212;-52
2023/08/15 00:37:12;;;;;;;6.70;4.80;;;;;;;;;;5030524;28;20234;-52
2023/08/15 00:39:38;;;;;;;4.90;4.40;;;;;;;;;;5029405;28;20197;-53
2023/08/15 00:42:04;;;;;;;5.73;4.03;;;;;;;;;;5030610;28;20205;-51
2023/08/15 00:44:30;;;;;;;5.43;4.20;;;;;;;;;;5030411;28;20668;-53
2023/08/15 00:46:56;;;;;;;6.10;4.43;;;;;;;;;;5030249;28;20236;-51
2023/08/15 00:49:22;;;;;;;7.77;4.43;;;;;;;;;;5030488;28;20228;-53
2023/08/15 00:51:50;;;;;;;9.70;4.00;;;;;;;;;;5030358;28;20252;-52
2023/08/15 00:54:16;;;;;;;5.27;4.10;;;;;;;;;;5030143;28;20687;-53
2023/08/15 00:56:42;;;;;;;7.23;4.33;;;;;;;;;;5030161;28;20669;-53
2023/08/15 00:59:08;;;;;;;6.43;3.90;;;;;;;;;;5030540;28;20204;-51
2023/08/15 01:01:36;;;;;;;5.83;3.80;;;;;;;;;;5030320;28;20247;-53
2023/08/15 01:04:02;;;;;;;5.97;4.73;;;;;;;;;;5030422;28;20197;-51
2023/08/15 01:06:36;;;;;;;5.63;3.70;;;;;;;;;;5030068;28;20208;-52
2023/08/15 01:09:04;;;;;;;4.83;4.20;;;;;;;;;;5029943;28;20276;-51
2023/08/15 01:11:33;;;;;;;4.27;3.70;;;;;;;;;;5029917;28;20786;-52
2023/08/15 01:14:00;;;;;;;4.87;3.93;;;;;;;;;;5029904;28;20235;-52
2023/08/15 01:16:28;;;;;;;7.87;4.13;;;;;;;;;;5030215;28;20609;-52
2023/08/15 01:18:56;;;;;;;7.60;4.30;;;;;;;;;;5029847;28;20605;-51
2023/08/15 01:21:26;;;;;;;6.90;3.90;;;;;;;;;;5030070;28;20251;-53
2023/08/15 01:23:53;;;;;;;4.50;3.73;;;;;;;;;;5029829;28;20535;-53
2023/08/15 01:26:19;;;;;;;3.93;3.50;;;;;;;;;;5030166;28;20243;-53
2023/08/15 01:28:45;;;;;;;4.70;3.40;;;;;;;;;;5029814;28;20242;-52
2023/08/15 01:31:15;;;;;;;4.03;3.63;;;;;;;;;;5029797;28;20291;-51
2023/08/15 01:33:43;;;;;;;5.87;3.40;;;;;;;;;;5029695;28;20284;-51
2023/08/15 01:36:12;;;;;;;5.87;3.20;;;;;;;;;;5029671;28;20197;-53
2023/08/15 01:38:40;;;;;;;3.80;3.50;;;;;;;;;;5029688;28;20275;-53
2023/08/15 01:41:08;;;;;;;4.30;3.47;;;;;;;;;;5029801;28;20291;-53
2023/08/15 01:43:36;;;;;;;5.50;3.70;;;;;;;;;;5029431;28;20229;-51
2023/08/15 01:46:02;;;;;;;4.47;3.60;;;;;;;;;;5029820;28;20205;-51
2023/08/15 01:48:28;;;;;;;3.87;3.57;;;;;;;;;;5029647;28;20247;-52
2023/08/15 01:50:54;;;;;;;4.40;4.00;;;;;;;;;;5031585;28;20549;-53
2023/08/15 01:53:21;;;;;;;4.93;3.37;;;;;;;;;;5033813;28;20197;-53
2023/08/15 01:55:47;;;;;;;4.10;3.70;;;;;;;;;;5033197;28;20277;-53
2023/08/15 01:58:14;;;;;;;5.17;3.73;;;;;;;;;;5032739;28;20331;-52
2023/08/15 02:00:40;;;;;;;6.23;3.50;;;;;;;;;;5032655;28;20573;-53
2023/08/15 02:03:06;;;;;;;4.67;3.50;;;;;;;;;;5033301;28;20193;-52
2023/08/15 02:05:32;;;;;;;3.87;3.30;;;;;;;;;;5033109;28;20220;-53
2023/08/15 02:07:59;;;;;;;4.00;3.60;;;;;;;;;;5033165;28;20224;-53
2023/08/15 02:10:25;;;;;;;4.83;3.53;;;;;;;;;;5033182;28;20232;-53
2023/08/15 02:12:51;;;;;;;4.00;3.27;;;;;;;;;;5033082;28;20271;-53
2023/08/15 02:15:18;;;;;;;4.07;3.50;;;;;;;;;;5033000;28;20214;-52
2023/08/15 02:17:44;;;;;;;4.23;3.70;;;;;;;;;;5032968;28;20197;-53
2023/08/15 02:20:13;;;;;;;5.70;3.67;;;;;;;;;;5033034;28;20215;-52
2023/08/15 02:22:39;;;;;;;5.40;3.63;;;;;;;;;;5032518;28;20578;-52
2023/08/15 02:25:06;;;;;;;4.03;3.57;;;;;;;;;;5032815;28;20264;-52
2023/08/15 02:27:32;;;;;;;3.67;3.27;;;;;;;;;;5032885;28;20726;-53
2023/08/15 02:29:58;;;;;;;4.23;3.63;;;;;;;;;;5032616;28;20225;-51
2023/08/15 02:32:25;;;;;;;5.50;4.10;;;;;;;;;;5032903;28;20197;-52
2023/08/15 02:34:51;;;;;;;6.03;3.70;;;;;;;;;;5032684;28;20232;-53
2023/08/15 02:37:18;;;;;;;6.40;4.20;;;;;;;;;;5032809;28;20659;-53
2023/08/15 02:39:44;;;;;;;6.13;4.03;;;;;;;;;;5032519;28;20427;-51
2023/08/15 02:42:10;;;;;;;5.00;4.33;;;;;;;;;;5032658;28;20205;-52
2023/08/15 02:44:36;;;;;;;5.50;3.80;;;;;;;;;;5032525;28;20684;-51
2023/08/15 02:47:02;;;;;;;4.83;4.00;;;;;;;;;;5032384;28;20205;-53
2023/08/15 02:49:29;;;;;;;6.13;4.07;;;;;;;;;;5032439;28;20209;-51
2023/08/15 02:51:55;;;;;;;4.63;4.23;;;;;;;;;;5032298;28;20308;-52
2023/08/15 02:54:21;;;;;;;4.33;3.83;;;;;;;;;;5032481;28;20223;-53
2023/08/15 02:56:47;;;;;;;4.50;3.70;;;;;;;;;;5032218;28;20197;-52
2023/08/15 02:59:13;;;;;;;4.00;3.60;;;;;;;;;;5032251;28;20204;-52
2023/08/15 03:01:39;;;;;;;6.13;4.00;;;;;;;;;;5031016;28;20620;-53
2023/08/15 03:04:07;;;;;;;4.50;3.80;;;;;;;;;;5032261;28;20655;-53
2023/08/15 03:06:34;;;;;;;4.20;3.80;;;;;;;;;;5032049;28;20197;-52
2023/08/15 03:09:00;;;;;;;5.00;4.50;;;;;;;;;;5032038;28;20216;-52
2023/08/15 03:11:26;;;;;;;4.90;4.00;;;;;;;;;;5031989;28;20680;-53
2023/08/15 03:13:54;;;;;;;5.70;3.80;;;;;;;;;;5031969;28;20620;-53
2023/08/15 03:16:20;;;;;;;4.57;4.13;;;;;;;;;;5032176;28;20205;-53
2023/08/15 03:18:46;;;;;;;6.07;4.33;;;;;;;;;;5031763;28;20204;-52
2023/08/15 03:21:12;;;;;;;5.40;4.50;;;;;;;;;;5031720;28;20511;-53
2023/08/15 03:23:39;;;;;;;6.07;4.20;;;;;;;;;;5031885;28;20220;-53
2023/08/15 03:26:06;;;;;;;6.50;4.57;;;;;;;;;;5032021;28;20742;-53
2023/08/15 03:28:32;;;;;;;8.03;3.97;;;;;;;;;;5031972;28;20239;-52
2023/08/15 03:31:03;;;;;;;4.77;3.93;;;;;;;;;;5031569;28;20694;-52
2023/08/15 03:33:29;;;;;;;5.53;4.17;;;;;;;;;;5031605;28;20489;-53
2023/08/15 03:35:55;;;;;;;5.03;4.53;;;;;;;;;;5031547;28;20684;-53
2023/08/15 03:38:22;;;;;;;5.83;4.10;;;;;;;;;;5031866;28;20220;-53
2023/08/15 03:40:50;;;;;;;5.27;3.93;;;;;;;;;;5031579;28;20612;-53
2023/08/15 03:43:16;;;;;;;4.00;3.60;;;;;;;;;;5031136;28;20675;-53
2023/08/15 03:45:42;;;;;;;5.73;3.87;;;;;;;;;;5031170;28;20193;-52
2023/08/15 03:48:08;;;;;;;4.87;3.50;;;;;;;;;;5031252;28;20561;-52
2023/08/15 03:50:35;;;;;;;5.10;3.60;;;;;;;;;;5031355;28;20231;-52
2023/08/15 03:53:01;;;;;;;4.90;4.07;;;;;;;;;;5031137;28;20729;-53
2023/08/15 03:55:27;;;;;;;4.40;3.67;;;;;;;;;;5031259;28;20196;-52
2023/08/15 03:57:54;;;;;;;11.00;3.67;;;;;;;;;;5031029;28;20575;-52
2023/08/15 04:00:21;;;;;;;5.47;3.67;;;;;;;;;;5031508;28;20288;-52
2023/08/15 04:02:47;;;;;;;6.90;3.80;;;;;;;;;;5030941;28;20204;-52
2023/08/15 04:05:13;;;;;;;4.73;3.57;;;;;;;;;;5030776;28;20268;-52
2023/08/15 04:07:39;;;;;;;4.87;3.80;;;;;;;;;;5030638;28;20236;-52
2023/08/15 04:10:05;;;;;;;4.10;3.70;;;;;;;;;;5031268;28;20294;-53
2023/08/15 04:12:34;;;;;;;3.97;3.50;;;;;;;;;;5030858;28;20197;-52
2023/08/15 04:15:02;;;;;;;4.53;4.00;;;;;;;;;;5030882;28;20222;-52
2023/08/15 04:17:28;;;;;;;3.60;3.30;;;;;;;;;;5030684;28;20235;-52
2023/08/15 04:19:54;;;;;;;6.63;4.10;;;;;;;;;;5030233;28;20708;-52
2023/08/15 04:22:20;;;;;;;8.00;4.03;;;;;;;;;;5030922;28;20201;-52
2023/08/15 04:24:46;;;;;;;4.50;3.60;;;;;;;;;;5030303;28;20249;-52
2023/08/15 04:27:12;;;;;;;4.43;3.77;;;;;;;;;;5030633;28;20210;-51
2023/08/15 04:29:38;;;;;;;5.40;4.10;;;;;;;;;;5030626;28;20251;-53
2023/08/15 04:32:06;;;;;;;5.23;3.70;;;;;;;;;;5030572;28;20233;-53
2023/08/15 04:34:32;;;;;;;3.60;3.30;;;;;;;;;;5030491;28;20204;-52
2023/08/15 04:36:58;;;;;;;4.23;3.67;;;;;;;;;;5030265;28;20574;-51
2023/08/15 04:39:26;;;;;;;5.07;3.80;;;;;;;;;;5030559;28;20252;-52
2023/08/15 04:41:52;;;;;;;5.00;3.97;;;;;;;;;;5030613;28;20280;-52
2023/08/15 04:44:18;;;;;;;5.17;3.50;;;;;;;;;;5030636;28;20243;-53
2023/08/15 04:46:44;;;;;;;4.73;3.53;;;;;;;;;;5030226;28;20224;-53
2023/08/15 04:49:12;;;;;;;4.00;3.67;;;;;;;;;;5030175;28;20743;-53
2023/08/15 04:51:38;;;;;;;4.30;3.47;;;;;;;;;;5030268;28;20764;-51
2023/08/15 04:54:04;;;;;;;4.20;3.80;;;;;;;;;;5030304;28;20196;-53
2023/08/15 04:56:30;;;;;;;3.93;3.53;;;;;;;;;;5030446;28;20679;-53
2023/08/15 04:58:56;;;;;;;6.03;4.10;;;;;;;;;;5030126;28;20213;-52
2023/08/15 05:01:23;;;;;;;5.57;3.77;;;;;;;;;;5030399;28;20258;-52
2023/08/15 05:03:49;;;;;;;5.80;3.57;;;;;;;;;;5030143;28;20198;-52
2023/08/15 05:06:16;;;;;;;4.80;4.13;;;;;;;;;;5030118;28;20200;-52
2023/08/15 05:08:42;;;;;;;4.77;4.30;;;;;;;;;;5029963;28;20637;-52
2023/08/15 05:11:08;;;;;;;6.10;4.23;;;;;;;;;;5030100;28;20232;-52
2023/08/15 05:13:35;;;;;;;6.83;4.47;;;;;;;;;;5030216;28;20243;-52
2023/08/15 05:16:01;;;;;;;3.80;3.50;;;;;;;;;;5029793;28;20663;-52
2023/08/15 05:18:27;;;;;;;5.13;3.93;;;;;;;;;;5029959;28;20877;-52
2023/08/15 05:20:53;;;;;;;6.90;4.00;;;;;;;;;;5029530;28;20468;-52
2023/08/15 05:23:20;;;;;;;5.97;3.73;;;;;;;;;;5030085;28;20272;-52
2023/08/15 05:25:46;;;;;;;4.17;3.53;;;;;;;;;;5031796;28;20290;-52
2023/08/15 05:28:12;;;;;;;4.30;3.87;;;;;;;;;;5034091;28;20204;-52
2023/08/15 05:30:39;;;;;;;4.60;3.80;;;;;;;;;;5033910;28;20319;-52
2023/08/15 05:33:05;;;;;;;4.27;3.87;;;;;;;;;;5033973;28;20718;-52
2023/08/15 05:35:31;;;;;;;4.20;3.80;;;;;;;;;;5033987;28;20590;-53
2023/08/15 05:37:58;;;;;;;4.03;3.30;;;;;;;;;;5033647;28;20210;-52
2023/08/15 05:40:26;;;;;;;4.67;3.47;;;;;;;;;;5033992;28;20196;-52
2023/08/15 05:42:52;;;;;;;6.60;3.70;;;;;;;;;;5033664;28;20221;-52
2023/08/15 05:45:18;;;;;;;4.00;3.50;;;;;;;;;;5033618;28;20578;-52
2023/08/15 05:47:44;;;;;;;4.83;3.70;;;;;;;;;;5033488;28;20207;-52
2023/08/15 05:50:10;;;;;;;4.97;3.50;;;;;;;;;;5033164;28;20229;-52
2023/08/15 05:52:36;;;;;;;4.50;4.00;;;;;;;;;;5033588;28;20688;-52
2023/08/15 05:55:02;;;;;;;4.87;3.90;;;;;;;;;;5033425;28;20208;-52
2023/08/15 05:57:30;;;;;;;9.10;4.53;;;;;;;;;;5033469;28;20200;-52
2023/08/15 05:59:56;;;;;;;9.53;5.10;;;;;;;;;;5032482;28;20295;-52
2023/08/15 06:02:22;;;;;;;5.30;4.77;;;;;;;;;;5032656;28;20204;-52
2023/08/15 06:04:48;;;;;;;6.30;4.33;;;;;;;;;;5032964;28;20197;-52
2023/08/15 06:07:14;;;;;;;4.97;4.47;;;;;;;;;;5032666;28;20208;-52
2023/08/15 06:09:40;;;;;;;7.63;4.67;;;;;;;;;;5033224;28;20202;-52
2023/08/15 06:12:07;;;;;;;5.70;4.60;;;;;;;;;;5033185;28;20631;-51
2023/08/15 06:14:34;;;;;;;7.20;4.70;;;;;;;;;;5033269;28;20296;-52
2023/08/15 06:17:00;;;;;;;6.47;4.77;;;;;;;;;;5032749;28;20598;-52
2023/08/15 06:19:26;;;;;;;9.50;5.10;;;;;;;;;;5032821;28;20205;-51
2023/08/15 06:21:52;;;;;;;5.47;4.77;;;;;;;;;;5033009;28;20193;-51
2023/08/15 06:24:18;;;;;;;8.63;5.50;;;;;;;;;;5033003;28;20232;-51
2023/08/15 06:26:44;;;;;;;10.10;6.17;;;;;;;;;;5033005;28;20667;-50
2023/08/15 06:29:10;;;;;;;8.10;6.20;;;;;;;;;;5032404;28;20203;-51
2023/08/15 06:31:38;;;;;;;11.00;6.10;;;;;;;;;;5033074;28;20282;-50
2023/08/15 06:34:04;;;;;;;7.37;6.27;;;;;;;;;;5032765;28;20262;-51
2023/08/15 06:36:31;;;;;;;8.13;7.33;;;;;;;;;;5032522;28;20622;-50
2023/08/15 06:38:57;;;;;;;8.10;6.37;;;;;;;;;;5033030;28;20199;-50
2023/08/15 06:41:23;;;;;;;9.80;7.00;;;;;;;;;;5032650;28;20181;-51
2023/08/15 06:43:49;;;;;;;13.75;7.40;;;;;;;;;;5032799;28;20204;-50
2023/08/15 06:46:15;;;;;;;8.43;7.63;;;;;;;;;;5032566;28;20383;-50
2023/08/15 06:48:42;;;;;;;10.83;7.70;;;;;;;;;;5032292;28;20204;-50
2023/08/15 06:51:08;;;;;;;9.37;8.47;;;;;;;;;;5032340;28;20334;-50
2023/08/15 06:53:34;;;;;;;9.33;8.43;;;;;;;;;;5032508;28;20279;-50
2023/08/15 06:56:00;;;;;;;10.40;8.83;;;;;;;;;;5032155;28;20263;-51
2023/08/15 06:58:26;;;;;;;11.60;8.57;;;;;;;;;;5032075;28;20204;-52
2023/08/15 07:00:52;;;;;;;11.73;8.00;;;;;;;;;;5032043;28;20203;-51
2023/08/15 07:03:19;;;;;;;11.70;8.70;;;;;;;;;;5032144;28;20201;-50
2023/08/15 07:05:46;;;;;;;12.40;8.13;;;;;;;;;;5032063;28;20276;-50
2023/08/15 07:08:16;;;;;;;7.50;6.80;;;;;;;;;;5031482;28;20644;-49
2023/08/15 07:10:42;;;;;;;7.47;6.53;;;;;;;;;;5031997;28;20695;-51
2023/08/15 07:13:08;;;;;;;9.23;7.03;;;;;;;;;;5032134;28;20219;-51
2023/08/15 07:15:34;;;;;;;7.53;6.40;;;;;;;;;;5032097;28;20193;-52
2023/08/15 07:18:00;;;;;;;8.57;7.50;;;;;;;;;;5032009;28;20197;-51
2023/08/15 07:20:26;;;;;;;7.37;6.53;;;;;;;;;;5031807;28;20197;-52
2023/08/15 07:22:55;;;;;;;8.57;6.00;;;;;;;;;;5031976;28;20288;-52
2023/08/15 07:27:56;;;;;;;10.43;6.57;;;;;;;;;;5848795;23;20247;-51
2023/08/15 07:30:22;;;;;;;7.23;6.53;;;;;;;;;;5007840;28;20250;-50
2023/08/15 07:32:49;;;;;;;8.27;7.13;;;;;;;;;;5012570;28;20225;-52
2023/08/15 07:35:15;;;;;;;7.77;6.97;;;;;;;;;;5012441;28;20205;-51
2023/08/15 07:37:41;;;;;;;7.50;6.70;;;;;;;;;;5012168;28;20193;-52
2023/08/15 07:40:09;;;;;;;8.27;5.80;;;;;;;;;;5012148;28;20301;-50
2023/08/15 07:42:36;;;;;;;8.83;7.47;;;;;;;;;;5012020;28;20580;-51
2023/08/15 07:45:05;;;;;;;8.77;6.87;;;;;;;;;;5012002;28;20204;-52
2023/08/15 07:47:34;;;;;;;7.60;6.90;;;;;;;;;;5011877;28;20264;-52
2023/08/15 07:50:16;;;;;;;7.70;6.93;;;;;;;;;;5011779;28;20598;-51
2023/08/15 07:52:42;;;;;;;7.67;6.97;;;;;;;;;;5011775;28;20201;-57
2023/08/15 07:55:10;;;;;;;6.97;6.27;;;;;;;;;;5011859;28;20202;-53
2023/08/15 07:57:36;;;;;;;7.37;6.53;;;;;;;;;;5011634;28;20206;-52
2023/08/15 08:00:03;;;;;;;9.33;8.37;;;;;;;;;;5012015;28;20201;-51
2023/08/15 08:02:29;;;;;;;7.80;6.77;;;;;;;;;;5012322;28;20202;-53
2023/08/15 08:04:55;;;;;;;7.33;6.33;;;;;;;;;;5012135;28;20201;-53
2023/08/15 08:07:21;;;;;;;6.83;6.03;;;;;;;;;;5012259;28;20198;-52
2023/08/15 08:09:47;;;;;;;6.83;6.07;;;;;;;;;;5012122;28;20201;-53
2023/08/15 08:12:15;;;;;;;5.70;5.10;;;;;;;;;;5011916;28;20782;-52
2023/08/15 08:14:41;;;;;;;6.73;6.07;;;;;;;;;;5012020;28;20205;-52
2023/08/15 08:17:07;;;;;;;6.67;6.00;;;;;;;;;;5011852;28;20288;-52
2023/08/15 08:19:33;;;;;;;7.93;5.50;;;;;;;;;;5010010;28;20211;-52
2023/08/15 08:21:59;;;;;;;6.23;5.17;;;;;;;;;;5011825;28;20647;-52
2023/08/15 08:24:25;;;;;;;8.33;5.97;;;;;;;;;;5011899;28;20534;-54
2023/08/15 08:26:51;;;;;;;7.83;5.60;;;;;;;;;;5011633;28;20629;-53
2023/08/15 08:29:18;;;;;;;6.17;5.07;;;;;;;;;;5011592;28;20250;-52
2023/08/15 08:31:44;;;;;;;6.00;4.60;;;;;;;;;;5011641;28;20712;-52
2023/08/15 08:34:14;;;;;;;5.10;4.70;;;;;;;;;;5011755;28;20268;-57
2023/08/15 08:36:40;;;;;;;4.97;4.57;;;;;;;;;;5011782;28;20210;-52
2023/08/15 08:39:07;;;;;;;6.40;4.40;;;;;;;;;;5011617;28;20547;-52
2023/08/15 08:41:33;;;;;;;4.63;4.10;;;;;;;;;;5011826;28;20198;-53
2023/08/15 08:44:00;;;;;;;6.40;3.93;;;;;;;;;;5011361;28;20198;-53
2023/08/15 08:46:28;;;;;;;5.00;4.50;;;;;;;;;;5011367;28;20660;-52
2023/08/15 08:48:55;;;;;;;4.83;4.00;;;;;;;;;;5011237;28;20208;-52
2023/08/15 08:51:21;;;;;;;4.73;4.17;;;;;;;;;;5011714;28;20264;-53
2023/08/15 08:53:47;;;;;;;10.17;3.97;;;;;;;;;;5011528;28;20203;-52
2023/08/15 08:56:13;;;;;;;5.63;4.10;;;;;;;;;;5011496;28;20209;-52
2023/08/15 08:58:41;;;;;;;4.07;3.53;;;;;;;;;;5010963;28;20304;-52
2023/08/15 09:01:07;;;;;;;6.13;3.40;;;;;;;;;;5010395;28;20271;-53
2023/08/15 09:03:38;;;;;;;3.73;3.40;;;;;;;;;;5011416;28;20203;-52
2023/08/15 09:06:04;;;;;;;4.37;3.80;;;;;;;;;;5011266;28;20249;-52
2023/08/15 09:08:30;;;;;;;4.57;3.63;;;;;;;;;;5011355;28;20222;-51
2023/08/15 09:10:56;;;;;;;4.77;3.17;;;;;;;;;;5011253;28;20803;-52
2023/08/15 09:13:23;;;;;;;6.10;3.60;;;;;;;;;;5011325;28;20195;-52
2023/08/15 09:15:49;;;;;;;4.37;3.20;;;;;;;;;;5011079;28;20203;-52
2023/08/15 09:18:15;;;;;;;3.73;3.20;;;;;;;;;;5011286;28;20205;-53
2023/08/15 09:20:45;;;;;;;5.73;3.27;;;;;;;;;;5011182;28;20199;-51
2023/08/15 09:23:11;;;;;;;5.63;3.33;;;;;;;;;;5011011;28;20219;-51
2023/08/15 09:25:37;;;;;;;4.77;3.70;;;;;;;;;;5011111;28;20608;-51
2023/08/15 09:28:05;;;;;;;4.40;3.60;;;;;;;;;;5011016;28;20631;-51
2023/08/15 09:30:31;;;;;;;5.23;3.83;;;;;;;;;;5011106;28;20211;-51
2023/08/15 09:32:57;;;;;;;4.80;3.80;;;;;;;;;;5011012;28;20206;-51
2023/08/15 09:35:23;;;;;;;4.80;3.90;;;;;;;;;;5011030;28;20218;-52
2023/08/15 09:37:51;;;;;;;4.73;4.13;;;;;;;;;;5010957;28;20248;-51
2023/08/15 09:40:18;;;;;;;5.07;4.23;;;;;;;;;;5011056;28;20749;-51
2023/08/15 09:42:45;;;;;;;6.27;4.07;;;;;;;;;;5010918;28;20213;-51
2023/08/15 09:45:11;;;;;;;5.17;4.03;;;;;;;;;;5010214;28;20203;-53
2023/08/15 09:47:39;;;;;;;5.77;3.97;;;;;;;;;;5010324;28;20195;-51
2023/08/15 09:50:06;;;;;;;4.93;4.00;;;;;;;;;;5008731;28;20199;-52
2023/08/15 09:52:33;;;;;;;7.83;4.43;;;;;;;;;;5011228;28;20282;-53
2023/08/15 09:55:00;;;;;;;5.00;4.43;;;;;;;;;;5007385;28;20198;-52
2023/08/15 09:57:26;;;;;;;5.17;4.10;;;;;;;;;;5010816;28;20714;-52
2023/08/15 09:59:52;;;;;;;6.30;4.30;;;;;;;;;;5010626;28;20210;-53
2023/08/15 10:02:21;;;;;;;4.90;4.10;;;;;;;;;;5011089;28;20199;-52
2023/08/15 10:04:51;;;;;;;4.63;4.13;;;;;;;;;;5010762;28;20216;-53
2023/08/15 10:07:17;;;;;;;4.53;3.80;;;;;;;;;;5010684;28;20284;-53
2023/08/15 10:09:43;;;;;;;4.63;4.10;;;;;;;;;;5010567;28;20200;-53
2023/08/15 10:12:11;;;;;;;6.13;4.43;;;;;;;;;;5012706;28;20279;-54
2023/08/15 10:14:37;;;;;;;8.30;5.07;;;;;;;;;;5014342;28;20198;-53
2023/08/15 10:17:03;;;;;;;7.23;5.37;;;;;;;;;;5014382;28;20617;-53
2023/08/15 10:19:30;;;;;;;5.67;4.60;;;;;;;;;;5014137;28;20198;-54
2023/08/15 10:21:56;;;;;;;7.30;5.47;;;;;;;;;;5014163;28;20200;-53
2023/08/15 10:24:22;;;;;;;6.93;5.20;;;;;;;;;;5014134;28;20204;-53
2023/08/15 10:26:53;;;;;;;8.23;5.80;;;;;;;;;;5014298;28;20290;-54
2023/08/15 10:29:20;;;;;;;6.53;5.23;;;;;;;;;;5014094;28;20248;-53
2023/08/15 10:31:46;;;;;;;6.63;5.87;;;;;;;;;;5014094;28;20283;-52
2023/08/15 10:34:12;;;;;;;5.87;5.03;;;;;;;;;;5013923;28;20231;-53
2023/08/15 10:36:41;;;;;;;5.60;5.10;;;;;;;;;;5013988;28;20299;-53
2023/08/15 10:39:08;;;;;;;6.60;5.70;;;;;;;;;;5013640;28;20201;-53
2023/08/15 10:41:37;;;;;;;7.70;6.20;;;;;;;;;;5011460;28;20284;-53
2023/08/15 10:44:05;;;;;;;7.77;6.40;;;;;;;;;;5013503;28;20292;-53
2023/08/15 10:46:34;;;;;;;10.27;6.80;;;;;;;;;;5013641;28;20197;-53
2023/08/15 10:49:01;;;;;;;7.63;6.50;;;;;;;;;;5013552;28;20212;-52
2023/08/15 10:51:28;;;;;;;7.97;6.23;;;;;;;;;;5013331;28;20679;-53
2023/08/15 10:53:55;;;;;;;7.73;6.07;;;;;;;;;;5013316;28;20262;-52
2023/08/15 10:56:22;;;;;;;9.10;6.10;;;;;;;;;;5011320;28;20734;-52
2023/08/15 10:58:48;;;;;;;6.73;6.03;;;;;;;;;;5011269;28;20209;-51
2023/08/15 11:01:18;;;;;;;7.23;5.87;;;;;;;;;;5013045;28;20204;-52
2023/08/15 11:03:46;;;;;;;7.10;5.97;;;;;;;;;;5013180;28;20543;-52
2023/08/15 11:06:13;;;;;;;6.87;5.80;;;;;;;;;;5012680;28;20260;-52
2023/08/15 11:08:42;;;;;;;5.83;5.23;;;;;;;;;;5012763;28;20193;-52
2023/08/15 11:11:09;;;;;;;5.40;4.90;;;;;;;;;;5012430;28;20214;-53
2023/08/15 11:13:39;;;;;;;10.13;5.73;;;;;;;;;;5012620;28;20257;-53
2023/08/15 11:16:05;;;;;;;8.07;4.90;;;;;;;;;;5012808;28;20206;-53
2023/08/15 11:18:32;;;;;;;6.53;5.10;;;;;;;;;;5012875;28;20734;-52
2023/08/15 11:21:00;;;;;;;8.83;4.87;;;;;;;;;;5012617;28;20200;-53
2023/08/15 11:23:29;;;;;;;7.47;4.80;;;;;;;;;;5011710;28;20237;-53
2023/08/15 11:26:01;;;;;;;6.30;4.90;;;;;;;;;;5012554;28;20200;-53
2023/08/15 11:28:27;;;;;;;8.13;4.47;;;;;;;;;;5012417;28;20248;-53
2023/08/15 11:30:53;;;;;;;5.77;3.90;;;;;;;;;;5012348;28;20213;-53
2023/08/15 11:33:19;;;;;;;6.33;4.13;;;;;;;;;;5012352;28;20205;-52
2023/08/15 11:35:46;;;;;;;7.50;4.50;;;;;;;;;;5012570;28;20183;-53
2023/08/15 11:38:17;;;;;;;6.47;4.13;;;;;;;;;;5010328;28;20569;-53
2023/08/15 11:40:44;;;;;;;5.97;4.03;;;;;;;;;;5012497;28;20220;-54
2023/08/15 11:43:10;;;;;;;5.57;3.90;;;;;;;;;;5012090;28;20227;-53
2023/08/15 11:45:39;;;;;;;7.70;4.63;;;;;;;;;;5012243;28;20273;-52
2023/08/15 11:48:07;;;;;;;5.50;3.90;;;;;;;;;;5011844;28;20202;-53
2023/08/15 11:50:34;;;;;;;7.50;3.83;;;;;;;;;;5012352;28;20202;-53
2023/08/15 11:53:00;;;;;;;7.53;4.20;;;;;;;;;;5012148;28;20192;-53
2023/08/15 11:55:32;;;;;;;8.10;3.63;;;;;;;;;;5012204;28;20206;-52
2023/08/15 11:57:58;;;;;;;6.20;3.70;;;;;;;;;;5011953;28;20250;-53
2023/08/15 12:00:24;;;;;;;6.23;3.60;;;;;;;;;;5012018;28;20665;-53
2023/08/15 12:02:54;;;;;;;7.30;3.50;;;;;;;;;;5010403;28;20292;-52
2023/08/15 12:05:20;;;;;;;7.87;4.20;;;;;;;;;;5011631;28;20701;-52
2023/08/15 12:07:47;;;;;;;5.83;3.50;;;;;;;;;;5011858;28;20198;-52
2023/08/15 12:10:14;;;;;;;8.07;3.80;;;;;;;;;;5011674;28;20198;-53
2023/08/15 12:12:41;;;;;;;5.57;3.50;;;;;;;;;;5012065;28;20225;-52
2023/08/15 12:15:08;;;;;;;6.03;3.60;;;;;;;;;;5011972;28;20219;-52
2023/08/15 12:17:35;;;;;;;6.97;3.73;;;;;;;;;;5012253;28;20197;-51
2023/08/15 12:20:01;;;;;;;5.77;3.37;;;;;;;;;;5011876;28;20193;-51
2023/08/15 12:22:27;;;;;;;6.13;3.30;;;;;;;;;;5012002;28;20209;-50
2023/08/15 12:24:53;;;;;;;6.70;2.87;;;;;;;;;;5011958;28;20612;-53
2023/08/15 12:27:19;;;;;;;4.37;2.90;;;;;;;;;;5009500;28;20224;-52
2023/08/15 12:29:47;;;;;;;5.40;2.97;;;;;;;;;;5009556;28;20243;-52
2023/08/15 12:32:14;;;;;;;8.43;3.40;;;;;;;;;;5015093;28;20236;-53
2023/08/15 12:34:40;;;;;;;5.27;2.93;;;;;;;;;;5030706;28;20261;-53
2023/08/15 12:37:06;;;;;;;6.40;3.20;;;;;;;;;;5030858;28;20293;-53
2023/08/15 12:39:33;;;;;;;5.73;3.13;;;;;;;;;;5031153;28;20279;-53
2023/08/15 12:41:59;;;;;;;5.70;3.47;;;;;;;;;;5024470;28;20201;-53
2023/08/15 12:44:25;;;;;;;5.47;3.17;;;;;;;;;;5010993;28;20215;-53
2023/08/15 12:46:52;;;;;;;5.67;3.43;;;;;;;;;;5011015;28;20291;-53
2023/08/15 12:49:18;;;;;;;6.27;3.20;;;;;;;;;;5011221;28;20220;-52
2023/08/15 12:51:44;;;;;;;4.63;3.00;;;;;;;;;;5010957;28;20765;-53
2023/08/15 12:54:10;;;;;;;8.60;3.40;;;;;;;;;;5010933;28;20416;-53
2023/08/15 12:56:36;;;;;;;7.70;5.20;;;;;;;;;;5011050;28;20201;-53
2023/08/15 12:59:02;;;;;;;4.67;2.93;;;;;;;;;;5010781;28;20204;-52
2023/08/15 13:01:28;;;;;;;5.97;3.00;;;;;;;;;;5010975;28;20196;-53
2023/08/15 13:03:55;;;;;;;5.73;2.93;;;;;;;;;;5010571;28;20208;-54
2023/08/15 13:06:22;;;;;;;9.20;2.97;;;;;;;;;;5007010;28;20205;-53
2023/08/15 13:08:48;;;;;;;6.13;3.00;;;;;;;;;;5011060;28;20264;-53
2023/08/15 13:11:15;;;;;;;5.93;2.83;;;;;;;;;;5010634;28;20222;-51
2023/08/15 13:13:41;;;;;;;7.37;3.00;;;;;;;;;;5010922;28;20583;-52
2023/08/15 13:16:09;;;;;;;4.23;2.70;;;;;;;;;;5010850;28;20206;-54
2023/08/15 13:18:35;;;;;;;7.90;2.90;;;;;;;;;;5011029;28;20206;-51
2023/08/15 13:21:02;;;;;;;6.37;3.07;;;;;;;;;;5010744;28;20197;-52
2023/08/15 13:23:29;;;;;;;5.90;3.00;;;;;;;;;;5008583;28;20203;-50
2023/08/15 13:25:55;;;;;;;5.20;2.80;;;;;;;;;;5010728;28;20663;-50
2023/08/15 13:28:21;;;;;;;;;;;;;;;;;;5010999;28;20522;-52
2023/08/15 13:30:47;;;;;;;6.63;4.20;;;;;;;;;;5010963;28;20196;-51
2023/08/15 13:33:13;;;;;;;6.47;3.13;;;;;;;;;;5010651;28;20207;-51
2023/08/15 13:35:39;;;;;;;5.97;2.97;;;;;;;;;;5011039;28;20257;-50
2023/08/15 13:38:07;;;;;;;5.37;2.87;;;;;;;;;;5011063;28;20193;-51
2023/08/15 13:40:34;;;;;;;7.33;2.47;;;;;;;;;;5011113;28;20214;-51
2023/08/15 13:43:00;;;;;;;4.87;2.50;;;;;;;;;;5011122;28;20350;-51
2023/08/15 13:45:26;;;;;;;4.60;2.37;;;;;;;;;;5010755;28;20221;-50
2023/08/15 13:47:52;;;;;;;4.80;2.70;;;;;;;;;;5014634;28;20197;-50
2023/08/15 13:50:18;;;;;;;3.60;2.43;;;;;;;;;;5014857;28;20721;-49
2023/08/15 13:52:44;;;;;;;4.73;2.70;;;;;;;;;;5014804;28;20232;-49
2023/08/15 13:55:12;;;;;;;4.37;2.40;;;;;;;;;;5014514;28;20300;-50
2023/08/15 13:57:38;;;;;;;4.37;2.40;;;;;;;;;;5014668;28;20227;-50
2023/08/15 14:00:06;;;;;;;2.83;1.87;;;;;;;;;;5014670;28;20205;-50
2023/08/15 14:02:32;;;;;;;4.23;2.03;;;;;;;;;;5014734;28;20225;-50
2023/08/15 14:04:58;;;;;;;2.83;2.10;;;;;;;;;;5014584;28;20572;-51
2023/08/15 14:07:24;;;;;;;3.70;2.00;;;;;;;;;;5014370;28;20194;-50
2023/08/15 14:09:50;;;;;;;4.13;2.13;;;;;;;;;;5014518;28;20193;-50
2023/08/15 14:12:18;;;;;;;4.50;2.40;;;;;;;;;;5014367;28;20214;-51
2023/08/15 14:14:44;;;;;;;4.77;2.10;;;;;;;;;;5014352;28;20248;-50
2023/08/15 14:17:10;;;;;;;4.27;2.20;;;;;;;;;;5014355;28;20264;-52
2023/08/15 14:19:36;;;;;;;5.03;2.10;;;;;;;;;;5014337;28;20210;-51
2023/08/15 14:22:02;;;;;;;4.43;2.30;;;;;;;;;;5014414;28;20198;-51
2023/08/15 14:24:32;;;;;;;4.20;2.40;;;;;;;;;;5014086;28;20199;-51
2023/08/15 14:26:58;;;;;;;2.87;1.90;;;;;;;;;;5014187;28;20268;-51
2023/08/15 14:29:26;;;;;;;3.73;2.00;;;;;;;;;;5013663;28;20593;-52
2023/08/15 14:31:52;;;;;;;4.90;2.40;;;;;;;;;;5014048;28;20238;-51
2023/08/15 14:34:18;;;;;;;2.37;1.90;;;;;;;;;;5014068;28;20207;-51
2023/08/15 14:36:44;;;;;;;3.60;2.07;;;;;;;;;;5013448;28;20210;-51
2023/08/15 14:39:10;;;;;;;3.30;1.70;;;;;;;;;;5013530;28;20934;-52
2023/08/15 14:41:37;;;;;;;3.23;1.73;;;;;;;;;;5013629;28;20298;-51